Time;durP1;ratioP1;P1;durP2;ratioP2;P2;SDS_P1;SDS_P2;PMS_P1;PMS_P2;Temp;Humidity;BMP_temperature;BMP_pressure;BME280_temperature;BME280_humidity;BME280_pressure;Samples;Min_cycle;Max_cycle;Signal;HPM_P1;HPM_P2
2023/08/10 00:00:47;;;;;;;5.07;2.50;;;16.10;98.00;;;;;;5072012;28;20476;-71
2023/08/10 00:03:14;;;;;;;2.50;2.13;;;16.10;98.00;;;;;;5071838;28;20460;-69
2023/08/10 00:05:42;;;;;;;2.60;1.97;;;16.10;98.00;;;;;;5071984;28;20456;-71
2023/08/10 00:08:09;;;;;;;5.93;2.10;;;16.00;98.00;;;;;;5071841;28;20457;-70
2023/08/10 00:10:37;;;;;;;2.73;2.27;;;15.80;98.00;;;;;;5071875;28;20506;-70
2023/08/10 00:13:05;;;;;;;3.17;2.37;;;15.70;98.00;;;;;;5071806;28;20935;-69
2023/08/10 00:15:32;;;;;;;2.97;2.10;;;15.70;98.00;;;;;;5071766;28;20448;-69
2023/08/10 00:17:59;;;;;;;2.70;1.93;;;15.70;98.00;;;;;;5071842;28;20449;-70
2023/08/10 00:20:27;;;;;;;2.30;2.00;;;15.50;98.00;;;;;;5071663;28;20456;-69
2023/08/10 00:22:56;;;;;;;3.90;2.60;;;15.50;98.00;;;;;;5054044;28;20813;-70
2023/08/10 00:25:23;;;;;;;3.70;2.23;;;15.40;98.00;;;;;;5071807;28;20452;-69
2023/08/10 00:27:50;;;;;;;2.97;2.10;;;15.30;98.00;;;;;;5071738;28;20448;-69
2023/08/10 00:30:17;;;;;;;2.50;2.10;;;15.30;98.00;;;;;;5071909;28;20870;-70
2023/08/10 00:32:45;;;;;;;3.47;2.40;;;15.20;98.00;;;;;;5074921;28;20452;-69
2023/08/10 00:35:12;;;;;;;3.70;2.40;;;15.10;98.00;;;;;;5076020;28;20494;-70
2023/08/10 00:37:49;;;;;;;4.33;2.40;;;15.10;98.00;;;;;;5075881;28;20455;-69
2023/08/10 00:40:18;;;;;;;2.93;2.10;;;15.10;98.00;;;;;;5075971;28;20456;-69
2023/08/10 00:42:45;;;;;;;3.10;2.23;;;15.00;98.00;;;;;;5076051;28;20488;-70
2023/08/10 00:45:12;;;;;;;3.30;2.47;;;15.00;98.00;;;;;;5075935;28;20452;-69
2023/08/10 00:47:40;;;;;;;2.27;1.90;;;15.00;98.00;;;;;;5076129;28;20451;-71
2023/08/10 00:50:08;;;;;;;3.90;2.50;;;15.00;98.00;;;;;;5075673;28;21254;-69
2023/08/10 00:52:36;;;;;;;3.63;2.30;;;14.90;98.00;;;;;;5075555;28;20440;-70
2023/08/10 00:55:03;;;;;;;3.80;2.47;;;14.80;98.00;;;;;;5075257;28;20468;-70
2023/08/10 00:57:32;;;;;;;4.00;2.60;;;14.70;98.00;;;;;;5075513;28;20463;-68
2023/08/10 01:00:00;;;;;;;3.80;2.60;;;14.70;98.00;;;;;;5075148;28;20445;-69
2023/08/10 01:02:28;;;;;;;3.90;2.50;;;14.60;98.00;;;;;;5075379;28;20494;-69
2023/08/10 01:04:55;;;;;;;5.60;2.60;;;14.60;98.00;;;;;;5075046;28;20939;-69
2023/08/10 01:07:32;;;;;;;8.13;2.80;;;14.50;98.00;;;;;;5075180;28;20514;-69
2023/08/10 01:10:07;;;;;;;5.50;2.20;;;14.50;98.00;;;;;;5074731;28;20452;-70
2023/08/10 01:12:43;;;;;;;3.27;2.37;;;14.40;98.00;;;;;;5075333;28;20550;-69
2023/08/10 01:15:16;;;;;;;3.37;2.20;;;14.40;98.00;;;;;;5074970;28;20544;-69
2023/08/10 01:18:00;;;;;;;4.20;2.10;;;14.40;98.00;;;;;;5075076;28;20451;-70
2023/08/10 01:20:30;;;;;;;3.10;2.20;;;14.50;98.00;;;;;;5059196;28;20445;-69
2023/08/10 01:23:21;;;;;;;2.70;1.97;;;14.50;98.00;;;;;;5074943;28;20498;-70
2023/08/10 01:25:51;;;;;;;3.20;2.13;;;14.60;98.00;;;;;;5074902;28;20491;-68
2023/08/10 01:28:18;;;;;;;3.20;2.30;;;14.80;98.00;;;;;;5074963;28;20452;-70
2023/08/10 01:30:46;;;;;;;3.90;2.70;;;14.80;98.00;;;;;;5074845;28;20456;-71
2023/08/10 01:33:13;;;;;;;5.30;2.90;;;14.80;98.00;;;;;;5074826;28;20445;-70
2023/08/10 01:35:40;;;;;;;4.30;2.60;;;14.70;98.00;;;;;;5074855;28;21035;-69
2023/08/10 01:38:07;;;;;;;5.07;3.00;;;14.60;98.00;;;;;;5074629;28;20476;-68
2023/08/10 01:40:35;;;;;;;4.90;2.80;;;14.60;98.00;;;;;;5074827;28;20449;-69
2023/08/10 01:43:04;;;;;;;5.90;3.30;;;14.50;98.00;;;;;;5073927;28;20489;-70
2023/08/10 02:02:48;;;;;;;6.13;2.90;;;14.50;98.00;;;;;;5074414;28;20549;-69
2023/08/10 02:05:16;;;;;;;7.90;2.70;;;14.50;98.00;;;;;;5074083;28;20495;-69
2023/08/10 02:07:48;;;;;;;4.20;2.53;;;14.60;98.00;;;;;;5074255;28;20452;-69
2023/08/10 02:10:16;;;;;;;7.93;2.70;;;14.60;98.00;;;;;;5074011;28;20459;-69
2023/08/10 02:12:44;;;;;;;3.90;2.73;;;14.50;98.00;;;;;;5074174;28;20449;-70
2023/08/10 02:15:12;;;;;;;4.83;2.90;;;14.40;98.00;;;;;;5074091;28;20503;-69
2023/08/10 02:17:40;;;;;;;3.83;2.83;;;14.40;98.00;;;;;;5056013;28;20784;-70
2023/08/10 02:20:12;;;;;;;4.60;2.70;;;14.40;98.00;;;;;;5073807;28;20445;-70
2023/08/10 02:22:41;;;;;;;5.03;2.80;;;14.40;98.00;;;;;;5073814;28;20581;-69
2023/08/10 02:25:09;;;;;;;6.03;2.60;;;14.30;98.00;;;;;;5073863;28;20455;-69
2023/08/10 02:27:36;;;;;;;6.70;2.40;;;14.30;98.00;;;;;;5073819;28;20450;-70
2023/08/10 02:30:06;;;;;;;4.33;2.53;;;14.30;98.00;;;;;;5073548;28;20455;-71
2023/08/10 02:32:33;;;;;;;4.00;2.60;;;14.30;98.00;;;;;;5073521;28;20462;-69
2023/08/10 02:35:00;;;;;;;4.53;2.80;;;14.10;98.00;;;;;;5073563;28;20456;-70
2023/08/10 02:37:29;;;;;;;3.00;2.20;;;13.90;98.00;;;;;;5056287;28;20460;-70
2023/08/10 02:39:56;;;;;;;5.90;2.83;;;14.00;98.00;;;;;;5073648;28;20820;-69
2023/08/10 02:42:24;;;;;;;4.53;2.70;;;14.00;98.00;;;;;;5073477;28;21244;-69
2023/08/10 02:44:52;;;;;;;3.87;2.43;;;14.00;98.00;;;;;;5073240;28;20515;-69
2023/08/10 02:47:19;;;;;;;4.67;2.50;;;13.90;98.00;;;;;;5073176;28;20449;-71
2023/08/10 02:49:47;;;;;;;4.00;2.50;;;13.90;98.00;;;;;;5073210;28;20463;-69
2023/08/10 02:52:14;;;;;;;3.93;2.53;;;13.90;98.00;;;;;;5073114;28;20466;-70
2023/08/10 02:54:42;;;;;;;3.23;2.43;;;13.90;98.00;;;;;;5072409;28;20526;-69
2023/08/10 02:57:10;;;;;;;3.73;2.60;;;13.80;98.00;;;;;;5072761;28;20456;-70
2023/08/10 02:59:37;;;;;;;4.50;2.90;;;13.70;98.00;;;;;;5073056;28;20544;-69
2023/08/10 03:02:05;;;;;;;5.33;2.50;;;13.70;98.00;;;;;;5072178;28;20996;-69
2023/08/10 03:04:32;;;;;;;4.67;2.80;;;13.80;98.00;;;;;;5072544;28;20452;-70
2023/08/10 03:06:59;;;;;;;4.03;2.47;;;13.80;98.00;;;;;;5072131;28;20538;-70
2023/08/10 03:09:26;;;;;;;7.60;3.10;;;13.80;98.00;;;;;;5072450;28;20461;-70
2023/08/10 03:11:54;;;;;;;10.10;3.13;;;13.80;98.00;;;;;;5072642;28;20449;-71
2023/08/10 03:14:22;;;;;;;3.23;2.40;;;13.90;98.00;;;;;;5072944;28;20455;-70
2023/08/10 03:16:49;;;;;;;4.77;3.00;;;13.90;98.00;;;;;;5072718;28;20449;-70
2023/08/10 03:19:16;;;;;;;4.00;2.50;;;13.80;98.00;;;;;;5072719;28;20470;-70
2023/08/10 03:21:43;;;;;;;4.13;2.60;;;13.80;98.00;;;;;;5072783;28;20872;-69
2023/08/10 03:24:10;;;;;;;4.77;3.00;;;13.80;98.00;;;;;;5072896;28;20458;-69
2023/08/10 03:26:37;;;;;;;5.57;2.70;;;13.80;98.00;;;;;;5072763;28;20516;-70
2023/08/10 03:29:07;;;;;;;4.33;2.63;;;13.90;98.00;;;;;;5064416;28;20461;-69
2023/08/10 03:31:34;;;;;;;5.40;3.17;;;14.00;98.00;;;;;;5035025;28;20988;-69
2023/08/10 03:34:01;;;;;;;5.00;2.87;;;14.10;98.00;;;;;;5034985;28;20700;-69
2023/08/10 03:36:28;;;;;;;4.47;2.60;;;14.10;98.00;;;;;;5052503;28;20456;-69
2023/08/10 03:38:55;;;;;;;5.13;3.00;;;14.10;98.00;;;;;;5052413;28;20493;-68
2023/08/10 03:41:22;;;;;;;4.27;2.80;;;14.20;98.00;;;;;;5052037;28;20452;-70
2023/08/10 03:43:49;;;;;;;4.37;2.73;;;14.20;98.00;;;;;;5052425;28;20870;-70
2023/08/10 03:46:17;;;;;;;4.80;2.93;;;14.20;98.00;;;;;;5052331;28;20780;-70
2023/08/10 03:48:44;;;;;;;4.67;2.80;;;14.30;98.00;;;;;;5052256;28;20849;-69
2023/08/10 03:51:11;;;;;;;4.33;2.70;;;14.40;98.00;;;;;;5052097;28;20518;-70
2023/08/10 03:53:38;;;;;;;7.60;3.00;;;14.30;98.00;;;;;;5052223;28;20458;-70
2023/08/10 03:56:08;;;;;;;5.37;2.97;;;14.20;98.00;;;;;;5051872;28;20462;-70
2023/08/10 03:58:35;;;;;;;2.90;2.47;;;14.20;98.00;;;;;;5052054;28;20450;-69
2023/08/10 04:01:03;;;;;;;4.30;2.70;;;14.10;98.00;;;;;;5051813;28;20465;-69
2023/08/10 04:03:32;;;;;;;11.43;2.70;;;14.10;98.00;;;;;;5051924;28;20485;-69
2023/08/10 04:05:59;;;;;;;4.63;2.53;;;14.10;98.00;;;;;;5051702;28;20452;-70
2023/08/10 04:08:26;;;;;;;7.10;2.93;;;14.00;98.00;;;;;;5034498;28;20456;-69
2023/08/10 04:10:59;;;;;;;4.63;2.90;;;13.90;98.00;;;;;;5051878;28;20453;-68
2023/08/10 04:13:28;;;;;;;5.60;2.87;;;13.90;98.00;;;;;;5052123;28;20446;-69
2023/08/10 04:15:56;;;;;;;2.90;2.23;;;13.70;98.00;;;;;;5051840;28;20974;-70
2023/08/10 04:18:24;;;;;;;5.30;2.90;;;13.70;98.00;;;;;;5052059;28;20446;-70
2023/08/10 04:20:53;;;;;;;4.60;2.57;;;13.70;98.00;;;;;;5051965;28;20551;-70
2023/08/10 04:23:20;;;;;;;4.40;2.60;;;13.70;98.00;;;;;;5051959;28;20480;-70
2023/08/10 04:25:47;;;;;;;3.67;2.40;;;13.80;98.00;;;;;;5051890;28;20512;-70
2023/08/10 04:28:14;;;;;;;5.70;2.83;;;13.90;98.00;;;;;;5051839;28;20950;-70
2023/08/10 04:30:41;;;;;;;4.70;2.70;;;14.00;98.00;;;;;;5051689;28;20463;-69
2023/08/10 04:33:09;;;;;;;3.80;2.53;;;14.00;98.00;;;;;;5051760;28;20823;-69
2023/08/10 04:35:36;;;;;;;4.33;2.77;;;14.10;98.00;;;;;;5051581;28;20538;-70
2023/08/10 04:38:05;;;;;;;5.30;3.40;;;14.30;98.00;;;;;;5051495;28;20977;-69
2023/08/10 04:40:32;;;;;;;5.33;3.03;;;14.30;98.00;;;;;;5051675;28;20506;-69
2023/08/10 04:43:00;;;;;;;4.23;2.73;;;14.30;98.00;;;;;;5051559;28;20481;-68
2023/08/10 04:45:27;;;;;;;4.83;3.07;;;14.40;98.00;;;;;;5051558;28;20480;-69
2023/08/10 04:47:55;;;;;;;3.43;2.50;;;14.40;98.00;;;;;;5051552;28;20449;-69
2023/08/10 04:50:22;;;;;;;2.83;2.23;;;14.50;98.00;;;;;;5051286;28;20537;-70
2023/08/10 04:52:50;;;;;;;4.17;2.50;;;14.40;98.00;;;;;;5051515;28;20450;-69
2023/08/10 04:55:20;;;;;;;5.17;2.80;;;14.50;98.00;;;;;;5051399;28;20828;-69
2023/08/10 04:57:48;;;;;;;3.80;2.63;;;14.40;98.00;;;;;;5051581;28;20465;-69
2023/08/10 05:00:17;;;;;;;4.67;2.67;;;14.40;98.00;;;;;;5051471;28;20457;-69
2023/08/10 05:02:44;;;;;;;5.43;3.07;;;14.30;98.00;;;;;;5051448;28;20489;-69
2023/08/10 05:05:12;;;;;;;8.00;3.20;;;14.20;98.00;;;;;;5051474;28;20460;-69
2023/08/10 05:07:39;;;;;;;4.50;3.00;;;14.10;98.00;;;;;;5033989;28;20452;-70
2023/08/10 05:10:08;;;;;;;4.10;2.63;;;14.10;98.00;;;;;;5051582;28;20505;-69
2023/08/10 05:12:38;;;;;;;4.37;2.93;;;14.10;98.00;;;;;;5051659;28;20460;-69
2023/08/10 05:15:09;;;;;;;4.57;2.70;;;14.00;98.00;;;;;;5051500;28;20476;-69
2023/08/10 05:17:37;;;;;;;7.57;3.20;;;14.00;98.00;;;;;;5051763;28;20556;-69
2023/08/10 05:20:10;;;;;;;4.80;2.83;;;13.90;98.00;;;;;;5054853;28;20459;-69
2023/08/10 05:22:38;;;;;;;5.17;2.73;;;13.90;98.00;;;;;;5053770;28;20574;-69
2023/08/10 05:25:08;;;;;;;5.87;3.00;;;14.10;98.00;;;;;;5054968;28;20489;-69
2023/08/10 05:27:37;;;;;;;5.03;2.77;;;14.20;98.00;;;;;;5054891;28;20459;-71
2023/08/10 05:30:08;;;;;;;4.00;2.80;;;14.40;98.00;;;;;;5054639;28;20461;-69
2023/08/10 05:32:36;;;;;;;3.70;2.57;;;14.50;98.00;;;;;;5054834;28;20453;-69
2023/08/10 05:35:04;;;;;;;5.13;3.30;;;14.40;98.00;;;;;;5054635;28;20448;-68
2023/08/10 05:37:32;;;;;;;4.73;3.17;;;14.30;98.00;;;;;;5054914;28;20589;-69
2023/08/10 05:40:01;;;;;;;6.10;2.90;;;14.20;98.00;;;;;;5054567;28;20457;-70
2023/08/10 05:42:28;;;;;;;4.10;2.80;;;14.10;98.00;;;;;;5053996;28;20525;-69
2023/08/10 05:44:56;;;;;;;5.00;3.10;;;14.10;98.00;;;;;;5054620;28;20968;-70
2023/08/10 05:47:23;;;;;;;5.13;2.87;;;14.00;98.00;;;;;;5054562;28;20457;-69
2023/08/10 05:49:50;;;;;;;4.47;2.57;;;14.30;98.00;;;;;;5054427;28;20579;-70
2023/08/10 05:52:17;;;;;;;3.67;2.60;;;14.40;98.00;;;;;;5054418;28;20468;-69
2023/08/10 05:54:44;;;;;;;7.67;3.30;;;14.40;98.00;;;;;;5054420;28;20448;-69
2023/08/10 05:57:11;;;;;;;5.50;3.20;;;14.50;98.00;;;;;;5036273;28;21032;-69
2023/08/10 05:59:38;;;;;;;3.97;2.77;;;14.50;98.00;;;;;;5054345;28;20459;-70
2023/08/10 06:02:08;;;;;;;5.13;3.43;;;14.60;98.00;;;;;;5054230;28;20468;-69
2023/08/10 06:04:35;;;;;;;6.87;3.40;;;14.80;98.00;;;;;;5054358;28;20460;-69
2023/08/10 06:07:02;;;;;;;6.17;3.20;;;14.80;98.00;;;;;;5054317;28;20453;-70
2023/08/10 06:09:29;;;;;;;3.63;2.43;;;15.00;98.00;;;;;;5036626;28;21155;-70
2023/08/10 06:11:57;;;;;;;4.00;2.80;;;15.10;98.00;;;;;;5054337;28;20493;-70
2023/08/10 06:14:24;;;;;;;5.77;2.97;;;15.20;98.00;;;;;;5036360;28;20539;-71
2023/08/10 06:16:51;;;;;;;4.63;3.00;;;15.30;98.00;;;;;;5054155;28;20448;-70
2023/08/10 06:19:21;;;;;;;11.50;3.47;;;15.40;98.00;;;;;;5053912;28;20518;-70
2023/08/10 06:21:48;;;;;;;5.50;3.40;;;15.50;98.00;;;;;;5053481;28;21167;-71
2023/08/10 06:24:16;;;;;;;5.73;2.90;;;15.50;98.00;;;;;;5053769;28;20481;-69
2023/08/10 06:26:44;;;;;;;4.97;2.70;;;15.50;98.00;;;;;;5053884;28;20464;-69
2023/08/10 06:29:11;;;;;;;4.00;2.90;;;15.40;98.00;;;;;;5053407;28;20484;-71
2023/08/10 06:31:38;;;;;;;3.83;2.60;;;15.50;98.00;;;;;;5053701;28;20452;-65
2023/08/10 06:34:06;;;;;;;3.40;2.57;;;15.60;98.00;;;;;;5053525;28;20450;-64
2023/08/10 06:36:36;;;;;;;5.63;3.10;;;15.50;98.00;;;;;;5053089;28;20559;-66
2023/08/10 06:39:04;;;;;;;6.33;3.33;;;15.60;98.00;;;;;;5053534;28;20463;-65
2023/08/10 06:41:31;;;;;;;4.47;2.87;;;15.60;98.00;;;;;;5053448;28;20531;-66
2023/08/10 06:43:58;;;;;;;4.10;2.60;;;15.40;98.00;;;;;;5053409;28;21005;-65
2023/08/10 06:46:25;;;;;;;4.63;2.73;;;15.40;98.00;;;;;;5053386;28;20456;-66
2023/08/10 06:48:53;;;;;;;3.97;2.50;;;15.40;98.00;;;;;;5053414;28;20471;-65
2023/08/10 06:51:20;;;;;;;4.00;2.77;;;15.50;98.00;;;;;;5053513;28;20527;-66
2023/08/10 06:53:49;;;;;;;3.70;2.70;;;15.60;98.00;;;;;;5053391;28;20454;-65
2023/08/10 06:56:17;;;;;;;3.40;2.53;;;15.60;98.00;;;;;;5053147;28;20461;-66
2023/08/10 06:58:44;;;;;;;4.13;2.90;;;15.70;98.00;;;;;;5053113;28;20484;-65
2023/08/10 07:01:11;;;;;;;3.87;2.63;;;15.70;98.00;;;;;;5053220;28;20480;-65
2023/08/10 07:03:38;;;;;;;6.53;3.30;;;15.90;98.00;;;;;;5052995;28;20493;-66
2023/08/10 07:06:05;;;;;;;3.37;2.70;;;16.00;98.00;;;;;;5053357;28;20460;-65
2023/08/10 07:08:32;;;;;;;5.43;3.10;;;16.00;98.00;;;;;;5053167;28;20548;-65
2023/08/10 07:11:03;;;;;;;4.07;2.77;;;16.00;98.00;;;;;;5053055;28;20464;-66
2023/08/10 07:13:30;;;;;;;4.77;2.70;;;16.10;98.00;;;;;;5052993;28;20453;-65
2023/08/10 07:15:57;;;;;;;4.03;2.70;;;16.00;98.00;;;;;;5052648;28;20500;-65
2023/08/10 07:18:31;;;;;;;3.60;2.60;;;16.20;98.00;;;;;;5052747;28;20454;-66
2023/08/10 07:21:01;;;;;;;3.30;2.40;;;16.40;98.00;;;;;;5036119;28;20446;-66
2023/08/10 07:23:28;;;;;;;4.37;2.70;;;16.40;98.00;;;;;;5052526;28;20489;-65
2023/08/10 07:25:56;;;;;;;3.83;2.90;;;16.40;98.00;;;;;;5052650;28;20457;-65
2023/08/10 07:28:25;;;;;;;3.70;2.50;;;16.40;98.00;;;;;;5052536;28;20466;-66
2023/08/10 07:30:52;;;;;;;5.50;3.20;;;16.60;98.00;;;;;;5052299;28;20987;-66
2023/08/10 07:33:19;;;;;;;4.80;3.00;;;16.70;98.00;;;;;;5052559;28;20437;-66
2023/08/10 07:35:47;;;;;;;4.63;3.00;;;16.80;98.00;;;;;;5034717;28;20457;-66
2023/08/10 07:38:16;;;;;;;4.43;3.07;;;16.90;98.00;;;;;;5052290;28;20508;-68
2023/08/10 07:40:43;;;;;;;6.43;2.60;;;16.90;98.00;;;;;;5051807;28;20455;-67
2023/08/10 07:43:10;;;;;;;6.77;3.13;;;16.90;98.00;;;;;;5051962;28;20492;-67
2023/08/10 07:45:39;;;;;;;3.83;2.70;;;16.90;98.00;;;;;;5034601;28;20452;-67
2023/08/10 07:48:07;;;;;;;4.80;2.97;;;16.90;98.00;;;;;;5052444;28;20526;-67
2023/08/10 07:50:34;;;;;;;4.57;3.10;;;17.10;98.00;;;;;;5052176;28;20939;-66
2023/08/10 07:53:03;;;;;;;4.50;2.93;;;17.20;98.00;;;;;;5052319;28;20450;-67
2023/08/10 07:55:30;;;;;;;5.37;3.20;;;17.30;98.00;;;;;;5051929;28;20944;-67
2023/08/10 07:57:57;;;;;;;4.07;2.73;;;17.30;98.00;;;;;;5052158;28;20450;-69
2023/08/10 08:00:24;;;;;;;4.10;3.00;;;17.40;98.00;;;;;;5052429;28;20454;-65
2023/08/10 08:02:52;;;;;;;6.80;3.30;;;17.50;98.00;;;;;;5032938;28;20545;-66
2023/08/10 08:05:20;;;;;;;4.23;3.03;;;17.50;98.00;;;;;;5052501;28;20851;-67
2023/08/10 08:07:47;;;;;;;5.60;3.10;;;17.60;98.00;;;;;;5052016;28;20446;-67
2023/08/10 08:10:16;;;;;;;3.33;2.37;;;17.60;98.00;;;;;;5051942;28;20446;-65
2023/08/10 08:12:43;;;;;;;4.90;2.90;;;17.60;98.00;;;;;;5051666;28;20556;-66
2023/08/10 08:15:14;;;;;;;4.70;2.77;;;17.60;98.00;;;;;;5070701;28;20445;-66
2023/08/10 08:18:18;;;;;;;4.10;2.60;;;17.60;98.00;;;;;;5071544;28;20841;-66
2023/08/10 08:20:48;;;;;;;3.37;2.37;;;17.70;98.00;;;;;;5071724;28;20456;-67
2023/08/10 08:23:15;;;;;;;7.67;2.90;;;17.80;98.00;;;;;;5071809;28;20484;-65
2023/08/10 08:25:42;;;;;;;4.07;2.80;;;18.00;98.00;;;;;;5071633;28;20939;-65
2023/08/10 08:28:10;;;;;;;4.83;3.03;;;18.30;98.00;;;;;;5071638;28;20445;-65
2023/08/10 08:30:37;;;;;;;4.13;2.80;;;18.50;98.00;;;;;;5037334;28;20449;-70
2023/08/10 08:33:05;;;;;;;4.00;2.73;;;18.60;98.00;;;;;;5071508;28;21256;-66
2023/08/10 08:35:32;;;;;;;5.10;3.00;;;18.80;98.00;;;;;;5071654;28;20962;-65
2023/08/10 08:38:01;;;;;;;3.70;2.40;;;19.00;98.00;;;;;;5071783;28;20495;-74
2023/08/10 08:40:29;;;;;;;3.33;2.53;;;19.00;98.00;;;;;;5071576;28;20537;-67
2023/08/10 08:42:57;;;;;;;5.10;2.60;;;19.30;98.00;;;;;;5071494;28;20515;-67
2023/08/10 08:45:24;;;;;;;4.40;3.20;;;19.50;98.00;;;;;;5071691;28;20453;-65
2023/08/10 08:47:52;;;;;;;4.13;2.60;;;;;;;;;;5071336;28;20444;-65
2023/08/10 08:50:21;;;;;;;4.73;2.93;;;19.80;98.00;;;;;;5071848;28;21124;-65
2023/08/10 08:52:48;;;;;;;4.60;2.70;;;20.00;98.00;;;;;;5073021;28;20939;-66
2023/08/10 08:55:18;;;;;;;4.47;2.90;;;20.00;98.00;;;;;;5075386;28;20468;-66
2023/08/10 08:57:47;;;;;;;3.60;2.50;;;19.90;98.00;;;;;;5075346;28;20502;-65
2023/08/10 09:00:15;;;;;;;4.63;2.80;;;20.10;98.00;;;;;;5075367;28;20448;-65
2023/08/10 09:02:43;;;;;;;4.17;2.60;;;20.20;98.00;;;;;;5057819;28;20459;-64
2023/08/10 09:05:10;;;;;;;3.73;2.60;;;20.30;98.00;;;;;;5057556;28;20483;-70
2023/08/10 09:07:37;;;;;;;3.73;2.70;;;20.40;98.00;;;;;;5074927;28;20456;-73
2023/08/10 09:10:04;;;;;;;4.67;2.83;;;20.60;98.00;;;;;;5074882;28;20502;-73
2023/08/10 09:12:34;;;;;;;10.73;2.70;;;20.80;98.00;;;;;;5074850;28;20459;-74
2023/08/10 09:15:04;;;;;;;3.50;2.50;;;20.80;98.00;;;;;;5074690;28;20816;-65
2023/08/10 09:17:31;;;;;;;5.13;3.03;;;20.70;98.00;;;;;;5074902;28;20453;-63
2023/08/10 09:19:58;;;;;;;3.97;2.80;;;20.80;98.00;;;;;;5074843;28;20459;-64
2023/08/10 09:22:31;;;;;;;4.37;2.80;;;20.90;98.00;;;;;;5074763;28;20444;-65
2023/08/10 09:24:58;;;;;;;3.90;2.97;;;21.10;98.00;;;;;;5056802;28;20579;-65
2023/08/10 09:27:28;;;;;;;3.40;2.53;;;21.30;98.00;;;;;;5074517;28;20452;-65
2023/08/10 09:29:58;;;;;;;5.10;2.90;;;21.50;98.00;;;;;;5074764;28;20453;-63
2023/08/10 09:32:26;;;;;;;3.70;2.57;;;21.70;98.00;;;;;;5074397;28;20459;-63
2023/08/10 09:34:53;;;;;;;3.20;2.40;;;21.90;98.00;;;;;;5074758;28;20796;-63
2023/08/10 09:37:21;;;;;;;3.10;2.40;;;21.90;98.00;;;;;;5074595;28;20456;-72
2023/08/10 09:39:53;;;;;;;6.90;2.80;;;22.00;98.00;;;;;;5063186;28;20449;-65
2023/08/10 09:42:20;;;;;;;4.23;2.83;;;22.10;98.00;;;;;;5056530;28;20452;-65
2023/08/10 09:44:50;;;;;;;3.60;2.73;;;22.20;98.00;;;;;;5074512;28;20812;-70
2023/08/10 09:47:20;;;;;;;4.50;2.43;;;22.20;98.00;;;;;;5074225;28;20491;-68
2023/08/10 09:49:56;;;;;;;3.90;2.70;;;22.20;98.00;;;;;;5074500;28;20449;-67
2023/08/10 09:52:24;;;;;;;3.97;2.77;;;22.40;98.00;;;;;;5074140;28;20452;-66
2023/08/10 09:54:52;;;;;;;4.67;3.10;;;22.50;98.00;;;;;;5073911;28;20449;-66
2023/08/10 09:57:20;;;;;;;4.40;3.00;;;22.60;98.00;;;;;;5074387;28;20456;-66
2023/08/10 09:59:48;;;;;;;4.63;2.90;;;22.60;98.00;;;;;;5056687;28;20950;-66
2023/08/10 10:02:19;;;;;;;3.80;2.73;;;22.60;98.00;;;;;;5074232;28;20499;-65
2023/08/10 10:04:47;;;;;;;3.50;2.80;;;22.70;98.00;;;;;;5073296;28;20485;-66
2023/08/10 10:07:16;;;;;;;4.30;2.80;;;22.80;98.00;;;;;;5073996;28;20455;-65
2023/08/10 10:09:44;;;;;;;4.87;2.93;;;22.90;98.00;;;;;;5074002;28;20453;-65
2023/08/10 10:12:15;;;;;;;3.83;2.73;;;22.90;98.00;;;;;;5073543;28;20472;-66
2023/08/10 10:14:46;;;;;;;4.83;2.90;;;22.80;98.00;;;;;;5055514;28;20536;-66
2023/08/10 10:17:16;;;;;;;3.60;2.90;;;22.80;98.00;;;;;;5073343;28;20452;-66
2023/08/10 10:19:45;;;;;;;4.33;3.10;;;23.10;98.00;;;;;;5073863;28;20449;-66
2023/08/10 10:22:14;;;;;;;3.87;2.63;;;23.30;98.00;;;;;;5073537;28;20460;-65
2023/08/10 10:24:42;;;;;;;4.37;2.80;;;23.40;98.00;;;;;;5073598;28;20539;-67
2023/08/10 10:27:11;;;;;;;4.13;3.13;;;23.40;98.00;;;;;;5073698;28;20538;-66
2023/08/10 10:29:40;;;;;;;4.27;3.00;;;23.50;98.00;;;;;;5056256;28;20837;-66
2023/08/10 10:32:13;;;;;;;5.37;2.90;;;23.40;98.00;;;;;;5073667;28;20507;-66
2023/08/10 10:34:41;;;;;;;4.90;3.10;;;23.20;98.00;;;;;;5073760;28;20997;-68
2023/08/10 10:37:12;;;;;;;4.60;3.30;;;23.10;98.00;;;;;;5073633;28;20981;-68
2023/08/10 10:39:40;;;;;;;4.97;3.20;;;23.30;98.00;;;;;;5073679;28;20459;-66
2023/08/10 10:42:09;;;;;;;4.70;2.93;;;23.70;98.00;;;;;;5073490;28;20476;-67
2023/08/10 10:44:59;;;;;;;3.53;2.80;;;24.00;98.00;;;;;;5073479;28;20572;-67
2023/08/10 10:47:35;;;;;;;4.33;3.00;;;24.40;98.00;;;;;;5073431;28;20544;-68
2023/08/10 10:50:15;;;;;;;3.57;2.87;;;24.80;98.00;;;;;;5073445;28;20460;-66
2023/08/10 10:52:53;;;;;;;5.40;3.27;;;24.90;98.00;;;;;;5073362;28;20946;-66
2023/08/10 10:55:20;;;;;;;5.87;3.00;;;25.10;98.00;;;;;;5073370;28;20862;-66
2023/08/10 10:57:49;;;;;;;4.20;2.80;;;25.30;98.00;;;;;;5072983;28;20445;-67
2023/08/10 11:00:17;;;;;;;5.13;2.90;;;25.50;98.00;;;;;;5073022;28;20485;-67
2023/08/10 11:02:45;;;;;;;4.20;3.03;;;25.70;98.00;;;;;;5072889;28;20464;-67
2023/08/10 11:05:13;;;;;;;4.13;2.87;;;25.90;98.00;;;;;;5072529;28;20481;-67
2023/08/10 11:07:47;;;;;;;4.10;2.90;;;25.90;98.00;;;;;;5072719;28;20471;-66
2023/08/10 11:10:15;;;;;;;3.47;2.60;;;25.90;98.00;;;;;;5072861;28;20512;-66
2023/08/10 11:12:44;;;;;;;4.60;3.03;;;26.20;98.00;;;;;;5072157;28;20475;-66
2023/08/10 11:15:14;;;;;;;4.17;2.90;;;26.40;98.00;;;;;;5071848;28;20488;-67
2023/08/10 11:17:42;;;;;;;4.17;2.83;;;26.60;97.80;;;;;;5071274;28;20449;-66
2023/08/10 11:20:12;;;;;;;5.20;3.10;;;26.70;98.00;;;;;;5071859;28;20551;-66
2023/08/10 11:22:40;;;;;;;5.03;3.03;;;26.90;98.00;;;;;;5072055;28;20456;-66
2023/08/10 11:25:11;;;;;;;3.97;2.93;;;27.00;98.00;;;;;;5072360;28;20990;-67
2023/08/10 11:27:40;;;;;;;4.67;2.80;;;27.10;98.00;;;;;;5072552;28;20453;-66
2023/08/10 11:30:09;;;;;;;5.10;3.07;;;27.20;98.00;;;;;;5072388;28;20445;-67
2023/08/10 11:32:40;;;;;;;4.27;2.77;;;27.50;96.00;;;;;;5055062;28;20962;-68
2023/08/10 11:35:09;;;;;;;3.40;2.83;;;27.60;94.90;;;;;;5054930;28;20472;-67
2023/08/10 11:37:38;;;;;;;3.63;2.77;;;27.60;94.90;;;;;;5072627;28;20816;-66
2023/08/10 11:40:15;;;;;;;4.37;3.03;;;27.70;95.80;;;;;;5072326;28;20834;-67
2023/08/10 11:42:43;;;;;;;3.80;2.67;;;27.80;93.90;;;;;;5072597;28;20456;-68
2023/08/10 11:45:16;;;;;;;4.03;2.90;;;28.00;97.40;;;;;;5072519;28;20481;-67
2023/08/10 11:47:45;;;;;;;3.73;2.63;;;28.20;91.60;;;;;;5072021;28;20456;-67
2023/08/10 11:50:16;;;;;;;3.90;2.93;;;28.20;92.30;;;;;;5072466;28;20834;-68
2023/08/10 11:52:43;;;;;;;4.10;2.77;;;28.60;91.30;;;;;;5072243;28;20453;-67
2023/08/10 11:55:16;;;;;;;4.60;2.97;;;28.90;92.90;;;;;;5071914;28;20863;-67
2023/08/10 11:57:44;;;;;;;3.83;2.80;;;28.70;91.10;;;;;;5071688;28;20541;-67
2023/08/10 12:00:22;;;;;;;3.83;2.90;;;29.00;91.10;;;;;;5072002;28;20449;-69
2023/08/10 12:03:06;;;;;;;3.93;2.67;;;29.20;85.50;;;;;;5072047;28;20480;-68
2023/08/10 12:05:37;;;;;;;3.87;2.93;;;29.10;82.60;;;;;;5072050;28;20991;-68
2023/08/10 12:08:06;;;;;;;4.27;2.93;;;29.10;83.80;;;;;;5071918;28;20461;-66
2023/08/10 12:10:39;;;;;;;3.70;2.60;;;29.10;85.00;;;;;;5071841;28;20453;-67
2023/08/10 12:13:08;;;;;;;3.13;2.40;;;29.30;81.40;;;;;;5071813;28;20444;-68
2023/08/10 12:15:37;;;;;;;5.07;2.47;;;29.50;76.30;;;;;;5072060;28;20972;-66
2023/08/10 12:18:05;;;;;;;3.30;2.60;;;29.70;80.40;;;;;;5071791;28;20456;-67
2023/08/10 12:20:32;;;;;;;4.13;2.80;;;30.00;80.80;;;;;;5054204;28;21023;-68
2023/08/10 12:22:59;;;;;;;4.40;2.60;;;30.30;82.80;;;;;;5071706;28;21087;-68
2023/08/10 12:25:26;;;;;;;3.00;2.40;;;30.60;82.40;;;;;;5071696;28;20526;-68
2023/08/10 12:27:55;;;;;;;3.10;2.40;;;30.70;76.10;;;;;;5071406;28;20448;-68
2023/08/10 12:30:23;;;;;;;3.47;2.80;;;30.60;78.20;;;;;;5071932;28;20930;-68
2023/08/10 12:32:50;;;;;;;2.60;2.40;;;30.60;78.50;;;;;;5071925;28;20448;-68
2023/08/10 12:35:18;;;;;;;3.77;2.80;;;30.50;75.50;;;;;;5071948;28;20453;-67
2023/08/10 12:37:46;;;;;;;3.60;2.50;;;30.30;75.90;;;;;;5071851;28;20506;-67
2023/08/10 12:40:13;;;;;;;3.37;2.67;;;30.30;75.20;;;;;;5071975;28;20468;-68
2023/08/10 12:42:41;;;;;;;3.67;2.70;;;30.10;72.20;;;;;;5071884;28;20449;-68
2023/08/10 12:45:10;;;;;;;4.27;2.70;;;30.40;77.50;;;;;;5071968;28;20544;-68
2023/08/10 12:47:39;;;;;;;3.73;2.57;;;30.50;74.60;;;;;;5054420;28;20476;-68
2023/08/10 12:50:08;;;;;;;3.73;2.70;;;30.60;77.80;;;;;;5071452;28;20946;-67
2023/08/10 12:52:35;;;;;;;3.30;2.43;;;30.80;75.50;;;;;;5071719;28;20523;-67
2023/08/10 12:55:02;;;;;;;4.90;2.90;;;31.00;78.40;;;;;;5071180;28;20460;-67
2023/08/10 12:57:30;;;;;;;3.93;2.50;;;31.20;74.30;;;;;;5071484;28;20489;-68
2023/08/10 12:59:59;;;;;;;2.93;2.43;;;31.10;73.60;;;;;;5071589;28;20496;-67
2023/08/10 13:02:28;;;;;;;3.07;2.40;;;31.40;72.00;;;;;;5071514;28;20514;-68
2023/08/10 13:04:55;;;;;;;4.00;2.70;;;31.40;73.30;;;;;;5070937;28;20895;-67
2023/08/10 13:07:28;;;;;;;3.83;2.73;;;31.50;75.00;;;;;;5071445;28;20457;-68
2023/08/10 13:09:56;;;;;;;3.80;2.53;;;31.50;73.30;;;;;;5053254;28;20457;-67
2023/08/10 13:12:23;;;;;;;6.20;2.97;;;31.30;74.60;;;;;;5071482;28;20990;-67